• Join FlightAware (Why Join?)
  • Login
  • US Flag 
10:04AM EDT


 

Airport Tracker/Info


-or-


 

Live Flight TrackerFlight Track Log ✈ AWI4080 ✈ 09-Jul-2014 ✈ KPHL - KALB

Flight Track Log - Related Links

Times and Time Zones

All times are in EDT time to prevent confusion due to time zone crossing. See the AWI4080 flight status page for this flight to view local times or setup timezone preferences in your user account.

Time Position Orientation Groundspeed Altitude Reporting Facility
EDT Latitude Longitude Course Direction KTS MPH feet Rate Location/Type
08:01PM 39.8500 -75.2833 105° East 160 184 1,300  Level Philadelphia TRACON
08:02PM 39.8167 -75.3333 229° Southwest 200 230 3,400 2,280 Climbing Philadelphia TRACON
08:03PM 39.7667 -75.3500 194° South 218 251 5,900 2,160 Climbing Philadelphia TRACON
08:04PM 39.8167 -74.8809 90° East  Level FlightAware Approximate
08:04PM 39.7500 -75.2667 105° East 265 305 7,800  Level Philadelphia TRACON
08:05PM 39.8016 -74.7910 105° East  Level FlightAware Approximate
08:06PM 39.7836 -74.7016 105° East  Level FlightAware Approximate
08:06PM 39.7697 -75.0356 84° East 327 376 11,200  Level New York Center
08:07PM 39.7761 -74.9117 86° East 337 388 12,100 900 Climbing New York Center
08:08PM 39.7894 -74.7664 83° East 366 421 13,100 1,320 Climbing New York Center
08:09PM 39.8517 -74.6564 54° Northeast 365 420 14,800 1,620 Climbing New York Center
08:10PM 39.9397 -74.5719 36° Northeast 368 423 16,400 1,380 Climbing New York Center
08:11PM 40.0322 -74.4822 37° Northeast 379 436 17,600 1,260 Climbing New York Center
08:12PM 40.1247 -74.3947 36° Northeast 408 470 18,900 1,140 Climbing New York Center
08:13PM 40.2172 -74.2992 38° Northeast 413 475 19,900 840 Climbing New York Center
08:14PM 40.3117 -74.2058 37° Northeast 418 481 20,600 780 Climbing New York Center
08:15PM 40.4122 -74.1100 36° Northeast 423 487 21,500 840 Climbing New York Center
08:16PM 40.5108 -74.0139 37° Northeast 433 498 22,300 780 Climbing New York Center
08:18PM 40.6517 -73.7928 50° Northeast 461 531 23,700 600 Climbing Boston Center
08:19PM 40.7319 -73.6606 51° Northeast 461 531 24,000 120 Climbing Boston Center
08:20PM 40.8153 -73.5183 52° Northeast 483 556 24,000  Level Boston Center
08:21PM 40.9003 -73.3742 52° Northeast 491 565 24,000 -600 Level Boston Center
08:22PM 40.9961 -73.2264 49° Northeast 494 568 22,900 -1,140 Descending Boston Center
08:23PM 41.0828 -73.0889 50° Northeast 491 565 21,700 -1,200 Descending Boston Center
08:24PM 41.1569 -72.9433 56° Northeast 485 558 20,500 -1,200 Descending Boston Center
08:25PM 41.2244 -72.7997 58° Northeast 462 532 19,300 -1,260 Descending Boston Center
08:25PM 41.2378 -72.7725 57° Northeast 456 525 19,000 -1,440 Descending Boston Center
08:26PM 41.3267 -72.6339 49° Northeast 448 516 17,600 -1,320 Descending Boston Center
08:27PM 41.4317 -72.5267 37° Northeast 443 510 16,300 -1,260 Descending Boston Center
08:28PM 41.5439 -72.5008 10° North 408 470 15,100 -1,740 Descending Boston Center
08:29PM 41.6319 -72.5564 335° Northwest 348 400 12,900 -1,560 Descending Boston Center
08:30PM 41.7117 -72.6364 323° Northwest 334 384 12,000 -480 Descending Boston Center
08:31PM 41.8100 -72.6558 352° North 357 411 12,000  Level Boston Center
08:32PM 41.8994 -72.6714 353° North 356 410 12,000  Level Boston Center
08:33PM 42.0108 -72.6875 354° North 356 410 12,000  Level Boston Center
08:34PM 42.1100 -72.7039 353° North 359 413 12,000  Level Boston Center
08:35PM 42.2222 -72.7322 349° North 381 438 12,000  Level Boston Center
08:36PM 42.3103 -72.7964 332° Northwest 362 417 12,000  Level Boston Center
08:37PM 42.4075 -72.8372 343° North 374 430 12,000  Level Boston Center
08:38PM 42.4783 -72.9233 318° Northwest 340 391 12,000 -420 Level Boston Center
08:39PM 42.4972 -72.9989 289° West 346 398 11,400 -1,080 Descending Boston Center
08:39PM 42.5150 -73.0539 294° West 349 402 10,900 -420 Descending Boston Center
08:40PM 42.5369 -73.1131 297° West 333 383 11,000  Climbing Boston Center
08:40PM 42.5536 -73.1631 294° West 323 372 10,900 -540 Descending Boston Center
08:41PM 42.5750 -73.2125 300° West 289 333 10,500 -1,320 Descending Boston Center
08:41PM 42.5989 -73.2508 310° West 285 328 9,600 -1,980 Descending Boston Center
08:42PM 42.6325 -73.3097 308° West 282 325 8,300 -1,800 Descending Boston Center
08:43PM 42.6483 -73.3342 311° West 285 328 7,700 -1,680 Descending Boston Center
08:43PM 42.6806 -73.3894 308° West 277 319 6,600 -1,680 Descending Boston Center
08:44PM 42.6983 -73.4197 309° West 269 310 6,000 -1,560 Descending Boston Center
08:45PM 42.7750 -73.5547 308° West 251 289 3,300 -1,440 Descending Boston Center
08:46PM 42.7853 -73.5694 314° West 253 291 3,100 -300 Descending Boston Center
08:46PM 42.8178 -73.6272 307° West 247 284 3,000 -120 Descending Boston Center
08:47PM 42.8244 -73.6531 289° West 250 288 3,000 -900 Level Boston Center
08:47PM 42.8336 -73.7172 281° West 244 281 2,100 -1,320 Descending Boston Center
08:48PM 42.8392 -73.7422 287° West 243 280 1,700 -540 Descending Boston Center
08:48PM 42.8322 -73.7956 260° West 182 209 1,500 -240 Descending Boston Center
08:49PM 42.8247 -73.8047 222° Southwest 188 216 1,500 -600 Level Boston Center
08:49PM 42.7892 -73.8072 183° South 136 157 900 -840 Descending Boston Center
08:50PM 42.7800 -73.8064 176° South 153 176 700 -480 Descending Boston Center
08:51PM 42.7461 -73.8036 177° South 145 167 300 -420 Descending Boston Center